Aviation Digital Data Service (ADDS)

Output produced by METARs form (1553 UTC 30 October 2014)
found at http://aviationweather.gov/adds/metars/
 
KMSS 301133Z 3012/3112 28006KT P6SM SCT045 
     FM310400 27005KT P6SM BKN035